Latest Weather Observations for Cooma Airport

IDN60801

Issued at 1:43 pm EDT Thursday 20 January 2022 (issued every 10 minutes, with the page automatically refreshed every 10 minutes)

About weather observations | Map of weather stations | Latest weather observations for NSW | Other Formats
Station Details ID: 070217 Name: COOMA AIRPORT AWS Lat: -36.29 Lon: 148.97 Height: 930.0 m
Data from the previous 72 hours. | See also: Recent months at Cooma Airport
Date/Time
EDT
Temp
°C
App
Temp
°C
Dew
Point
°C
Rel
Hum
%
Delta-T
°C
Wind Press
QNH
hPa
Press
MSL
hPa
Rain since
9am
mm
Dir  Spd
km/h
Gust
km/h
Spd
kts
Gust
kts
20/01:30pm 15.0 10.5 8.5 65 3.4 ESE 22 28 12 15 1031.8 1027.7 0.0
20/01:00pm 15.3 11.3 9.0 66 3.4 E 20 26 11 14 1031.8 1027.7 0.0
20/12:30pm 15.4 11.6 8.9 65 3.5 E 19 28 10 15 1031.9 1027.8 0.0
20/12:00pm 14.6 10.9 7.9 64 3.5 ENE 17 30 9 16 1031.9 1027.8 0.0
20/11:30am 14.6 10.6 8.1 65 3.4 ENE 19 26 10 14 1031.9 1027.8 0.0
20/11:00am 14.6 11.2 7.6 63 3.6 E 15 22 8 12 1031.8 1027.7 0.0
20/10:30am 14.5 10.3 7.5 63 3.6 ENE 19 39 10 21 1031.6 1027.6 0.0
20/10:00am 13.3 9.4 6.9 65 3.2 E 17 22 9 12 1031.8 1027.7 0.0
20/09:30am 13.2 10.3 6.3 63 3.5 ESE 11 20 6 11 1031.8 1027.7 0.0
20/09:00am 12.7 9.5 7.0 68 2.9 ENE 13 20 7 11 1031.6 1027.6 0.0
20/08:30am 11.6 8.4 6.7 72 2.5 ESE 13 20 7 11 1031.4 1027.3 0.0
20/08:00am 11.2 8.0 6.9 75 2.1 ESE 13 15 7 8 1031.2 1027.1 0.0
20/07:30am 10.7 8.3 8.6 87 1.1 ESE 11 17 6 9 1031.0 1026.9 0.0
20/07:00am 10.3 8.8 9.1 92 0.6 S 7 11 4 6 1031.0 1026.9 0.0
20/06:30am 10.0 8.3 9.9 99 0.1 SSW 9 11 5 6 1030.9 1026.8 0.0
20/06:00am 10.0 8.3 9.9 99 0.1 S 9 13 5 7 1030.3 1026.2 0.0
20/05:30am 9.9 8.6 9.8 99 0.1 SSW 7 11 4 6 1029.9 1025.8 0.0
20/05:00am 9.9 8.2 9.8 99 0.1 SSW 9 13 5 7 1029.7 1025.5 0.0
20/04:30am 9.9 8.2 9.8 99 0.1 SSW 9 13 5 7 1029.7 1025.5 0.0
20/04:00am 9.7 7.5 9.2 97 0.3 SSW 11 13 6 7 1029.8 1025.7 0.0
20/03:30am 10.0 7.8 9.4 96 0.3 S 11 13 6 7 1029.8 1025.7 0.0
20/03:00am 10.1 8.3 9.3 95 0.4 SSW 9 13 5 7 1030.0 1025.9 0.0
20/02:30am 10.1 7.9 9.2 94 0.5 SSW 11 13 6 7 1030.2 1026.1 0.0
20/02:00am 10.2 8.3 9.1 93 0.6 SSW 9 13 5 7 1030.3 1026.2 0.0
20/01:30am 10.4 7.7 9.0 91 0.7 S 13 15 7 8 1030.6 1026.4 0.0
20/01:00am 10.5 8.2 8.9 90 0.8 S 11 15 6 8 1030.4 1026.3 0.0
20/12:30am 10.7 8.3 8.8 88 1.0 S 11 13 6 7 1030.4 1026.3 0.0
20/12:00am 10.7 8.8 9.1 90 0.8 S 9 13 5 7 1030.2 1026.1 0.0
 
Date/Time
EDT
Temp
°C
App
Temp
°C
Dew
Point
°C
Rel
Hum
%
Delta-T
°C
Wind Press
QNH
hPa
Press
MSL
hPa
Rain since
9am
mm
Dir  Spd
km/h
Gust
km/h
Spd
kts
Gust
kts
19/11:30pm 10.8 8.1 8.9 88 1.0 S 13 17 7 9 1030.2 1026.1 0.0
19/11:00pm 11.1 8.7 8.7 85 1.2 SSE 11 15 6 8 1030.0 1025.9 0.0
19/10:30pm 11.3 9.4 8.9 85 1.3 SE 9 15 5 8 1029.8 1025.7 0.0
19/10:00pm 11.4 8.7 8.8 84 1.3 ESE 13 17 7 9 1029.8 1025.7 0.0
19/09:30pm 12.0 9.6 8.7 80 1.7 SE 11 15 6 8 1029.4 1025.2 0.0
19/09:00pm 12.2 10.2 8.5 78 1.9 ESE 9 13 5 7 1028.9 1024.8 0.0
19/08:30pm 12.5 9.2 8.0 74 2.3 ESE 15 20 8 11 1028.6 1024.4 0.0
19/08:00pm 12.7 9.5 8.4 75 2.2 SE 15 22 8 12 1028.1 1024.0 0.0
19/07:30pm 12.9 8.9 8.4 74 2.4 ESE 19 28 10 15 1028.0 1023.9 0.0
19/07:00pm 13.9 10.3 8.5 70 2.8 ESE 17 22 9 12 1027.5 1023.3 0.0
19/06:30pm 14.1 9.6 8.5 69 3.0 ESE 22 32 12 17 1027.1 1022.9 0.0
19/06:00pm 14.7 9.6 7.7 63 3.6 SSE 24 35 13 19 1026.6 1022.4 0.0
19/05:30pm 15.7 10.6 7.7 59 4.2 SE 24 33 13 18 1026.3 1022.1 0.0
19/05:00pm 17.2 12.0 8.9 58 4.5 SSE 26 35 14 19 1026.2 1022.0 0.0
19/04:30pm 16.2 9.9 7.2 55 4.7 SSE 30 39 16 21 1026.0 1021.8 0.0
19/04:00pm 17.3 10.9 9.2 59 4.4 S 33 41 18 22 1026.0 1021.8 0.0
19/03:30pm 16.9 11.1 9.6 62 4.0 SSE 30 37 16 20 1025.8 1021.7 0.0
19/03:00pm 17.2 11.8 9.6 61 4.2 SSE 28 39 15 21 1025.5 1021.3 0.0
19/02:30pm 17.9 14.4 11.0 64 3.9 S 20 28 11 15 1025.6 1021.4 0.0
19/02:00pm 16.4 11.1 10.0 66 3.5 SSE 28 37 15 20 1025.6 1021.4 0.0
19/01:30pm 17.4 12.6 11.7 69 3.3 SSE 28 39 15 21 1025.4 1021.2 0.0
19/01:00pm 16.9 12.0 11.4 70 3.1 SSE 28 35 15 19 1025.3 1021.1 0.0
19/12:30pm 17.1 13.8 12.8 76 2.5 SSE 22 28 12 15 1025.3 1021.1 0.0
19/12:18pm 15.8 13.0 13.3 85 1.5 S 20 28 11 15 1025.3 1021.1 0.0
19/12:03pm 14.3 10.5 11.1 81 1.8 S 22 35 12 19 1025.3 1021.1 0.0
19/12:00pm 15.0 11.8 12.0 82 1.7 S 20 26 11 14 1025.3 1021.1 0.0
19/11:53am 15.3 11.7 11.7 79 2.0 SSE 22 30 12 16 1025.3 1021.1 0.0
19/11:36am 14.4 11.3 12.1 86 1.3 S 20 26 11 14 1025.2 1021.0 0.0
19/11:34am 14.3 11.2 12.2 87 1.2 S 20 28 11 15 1025.2 1021.0 0.0
19/11:30am 13.9 10.7 11.8 87 1.2 S 20 28 11 15 1025.2 1021.0 0.0
19/11:00am 14.3 12.1 12.0 86 1.3 SSW 15 20 8 11 1025.0 1020.8 0.0
19/10:57am 14.0 11.6 11.5 85 1.4 SSW 15 20 8 11 1025.0 1020.8 0.0
19/10:52am 14.7 12.7 12.6 87 1.2 SSW 15 20 8 11 1025.0 1020.8 0.0
19/10:30am 13.2 10.2 12.1 93 0.6 SSW 19 24 10 13 1025.0 1020.8 0.0
19/10:00am 13.2 10.6 11.9 92 0.7 SSW 17 22 9 12 1024.9 1020.7 0.0
19/09:30am 12.8 10.7 11.2 90 0.9 SW 13 20 7 11 1024.9 1020.7 0.0
19/09:00am 12.5 10.3 10.9 90 0.9 SSW 13 20 7 11 1024.6 1020.4 2.0
19/08:30am 12.0 9.5 11.2 95 0.4 SW 15 19 8 10 1024.4 1020.2 2.0
19/08:00am 11.3 8.7 10.7 96 0.3 SSW 15 19 8 10 1024.1 1019.9 2.0
19/07:43am 11.0 8.3 10.4 96 0.3 SSW 15 20 8 11 1023.8 1019.5 2.0
19/07:30am 11.1 8.5 10.6 97 0.3 SW 15 20 8 11 1023.6 1019.3 2.0
19/07:00am 10.5 8.2 10.3 99 0.1 SW 13 19 7 10 1023.2 1019.0 2.0
19/06:30am 10.2 7.8 10.1 99 0.1 SW 13 15 7 8 1022.9 1018.6 2.0
19/06:20am 10.2 7.8 10.1 99 0.1 SW 13 15 7 8 1022.8 1018.5 2.0
19/06:00am 10.2 8.2 10.1 99 0.1 SW 11 15 6 8 1022.7 1018.4 2.0
19/05:30am 10.1 8.1 10.0 99 0.1 SSW 11 17 6 9 1022.0 1017.8 2.0
19/05:00am 10.0 7.2 9.9 99 0.1 SSW 15 19 8 10 1021.6 1017.3 2.0
19/04:51am 10.0 7.6 9.9 99 0.1 SW 13 17 7 9 1021.4 1017.1 2.0
19/04:30am 10.1 6.9 10.0 99 0.1 SSW 17 22 9 12 1020.8 1016.5 2.0
19/04:00am 10.1 6.9 10.0 99 0.1 SSW 17 20 9 11 1020.5 1016.2 2.0
19/03:30am 10.3 6.8 10.1 99 0.1 SSW 19 24 10 13 1020.3 1016.0 2.0
19/03:17am 10.3 7.1 10.1 99 0.1 SSW 17 22 9 12 1020.2 1015.9 2.0
19/03:04am 10.5 7.4 10.3 99 0.1 SSW 17 20 9 11 1020.2 1015.9 2.0
19/03:00am 10.5 7.8 10.3 99 0.1 SSW 15 20 8 11 1020.2 1015.9 2.0
19/02:30am 10.7 8.0 10.5 99 0.1 S 15 19 8 10 1020.3 1016.0 2.0
19/02:00am 10.7 7.7 10.5 99 0.1 SSW 17 22 9 12 1020.2 1015.9 2.0
19/01:30am 10.9 8.0 10.9 100 0.0 S 17 20 9 11 1020.0 1015.8 1.8
19/01:00am 11.1 8.6 10.9 99 0.1 SSW 15 20 8 11 1020.3 1016.0 1.4
19/12:30am 11.0 7.5 10.8 99 0.1 SSW 20 28 11 15 1020.2 1015.9 1.0
19/12:00am 11.3 8.1 11.1 99 0.1 SSW 19 24 10 13 1019.8 1015.5 0.6
 
Date/Time
EDT
Temp
°C
App
Temp
°C
Dew
Point
°C
Rel
Hum
%
Delta-T
°C
Wind Press
QNH
hPa
Press
MSL
hPa
Rain since
9am
mm
Dir  Spd
km/h
Gust
km/h
Spd
kts
Gust
kts
18/11:30pm 11.4 8.6 11.2 99 0.1 SSW 17 22 9 12 1019.8 1015.5 0.2
18/11:00pm 11.9 8.8 11.7 99 0.1 S 19 26 10 14 1019.4 1015.1 0.0
18/10:47pm 12.4 9.3 12.1 98 0.2 S 20 30 11 16 1019.2 1014.9 0.0
18/10:30pm 13.5 11.2 12.9 96 0.3 S 17 26 9 14 1019.0 1014.6 0.0
18/10:00pm 14.7 13.8 13.6 93 0.6 ENE 11 15 6 8 1018.6 1014.3 0.0
18/09:30pm 14.9 14.0 13.8 93 0.6 NE 11 13 6 7 1018.4 1014.1 0.0
18/09:21pm 14.8 13.9 13.7 93 0.6 NE 11 13 6 7 1018.2 1013.9 0.0
18/09:00pm 14.8 13.8 13.5 92 0.8 NNE 11 15 6 8 1018.1 1013.8 0.0
18/08:30pm 15.8 14.5 13.8 88 1.2 NE 13 19 7 10 1017.8 1013.4 0.0
18/08:00pm 16.2 13.7 13.5 84 1.6 ENE 19 24 10 13 1017.1 1012.7 0.0
18/07:30pm 16.9 15.6 13.8 82 1.8 SE 13 17 7 9 1016.5 1012.2 0.0
18/07:00pm 17.0 15.0 13.9 82 1.8 SSE 17 22 9 12 1015.9 1011.5 0.0
18/06:30pm 17.6 15.3 14.1 80 2.1 S 19 26 10 14 1015.9 1011.5 0.0
18/06:00pm 18.2 15.7 14.1 77 2.5 S 20 26 11 14 1015.6 1011.2 0.0
18/05:30pm 18.2 15.1 13.5 74 2.8 SSW 22 26 12 14 1015.2 1010.9 0.0
18/05:00pm 19.2 16.7 14.2 73 3.0 S 20 26 11 14 1015.6 1011.2 0.0
18/04:30pm 19.5 17.2 14.7 74 2.9 S 20 28 11 15 1015.5 1011.1 0.0
18/04:00pm 18.7 16.8 14.2 75 2.7 SSW 17 20 9 11 1015.8 1011.4 0.0
18/03:48pm 18.5 17.1 14.4 77 2.5 SSW 15 20 8 11 1015.9 1011.5 0.0
18/03:46pm 18.5 17.5 14.6 78 2.4 SSW 13 20 7 11 1015.9 1011.5 0.0
18/03:30pm 18.8 18.2 14.7 77 2.5 SSW 11 17 6 9 1015.8 1011.4 0.0
18/03:29pm 18.8 18.2 14.5 76 2.6 SSW 11 15 6 8 1015.8 1011.4 0.0
18/03:00pm 17.9 17.2 14.2 79 2.2 SSW 11 17 6 9 1015.9 1011.5 0.0
18/02:47pm 18.1 17.1 14.6 80 2.1 SSW 13 19 7 10 1016.0 1011.6 0.0
18/02:30pm 17.8 16.7 14.3 80 2.1 SSW 13 17 7 9 1015.9 1011.5 0.0
18/02:15pm 18.1 16.7 14.6 80 2.1 S 15 20 8 11 1016.0 1011.6 0.0
18/02:00pm 17.7 16.7 14.6 82 1.9 S 13 17 7 9 1016.2 1011.9 0.0
18/01:44pm 17.5 16.1 14.4 82 1.9 S 15 20 8 11 1016.3 1012.0 0.0
18/01:30pm 17.6 16.7 14.9 84 1.6 SSE 13 17 7 9 1016.3 1012.0 0.0
18/01:00pm 16.6 14.7 14.1 85 1.5 S 17 22 9 12 1016.7 1012.3 0.0
18/12:30pm 16.1 14.1 13.9 87 1.3 S 17 24 9 13 1016.8 1012.4 0.0
18/12:00pm 16.7 14.8 14.3 86 1.4 S 17 24 9 13 1016.7 1012.3 0.0
18/11:30am 16.5 15.6 14.9 90 1.0 SSW 13 19 7 10 1017.0 1012.6 0.0
18/11:00am 15.6 14.2 14.5 93 0.7 S 15 20 8 11 1016.8 1012.4 0.0
18/10:30am 15.0 13.3 14.7 98 0.2 SSW 17 22 9 12 1016.7 1012.3 0.0
18/10:05am 14.7 12.9 14.5 99 0.1 SSW 17 22 9 12 1016.7 1012.3 0.0
18/10:00am 14.7 13.0 14.7 100 0.0 SSW 17 22 9 12 1016.7 1012.3 0.0
18/09:30am 14.6 12.9 14.6 100 0.0 SSW 17 20 9 11 1016.5 1012.2 0.0
18/09:00am 14.7 13.0 14.7 100 0.0 SSW 17 20 9 11 1016.4 1012.1 0.0
18/08:33am 15.0 13.7 14.8 99 0.1 SSW 15 20 8 11 1016.0 1011.6 0.0
18/08:30am 15.0 13.7 14.8 99 0.1 SSW 15 19 8 10 1016.0 1011.6 0.0
18/08:00am 15.1 14.6 14.9 99 0.1 SSW 11 15 6 8 1015.6 1011.2 0.0
18/07:30am 14.9 14.0 14.9 100 0.0 SW 13 17 7 9 1015.1 1010.7 0.0
18/07:06am 14.8 13.9 14.8 100 0.0 SSW 13 15 7 8 1014.8 1010.4 0.0
18/07:00am 14.8 13.9 14.8 100 0.0 SSW 13 17 7 9 1014.8 1010.4 0.0
18/06:30am 14.5 13.5 14.5 100 0.0 SSW 13 17 7 9 1014.7 1010.3 0.0
18/06:15am 14.5 13.4 14.3 99 0.1 SSW 13 17 7 9 1014.7 1010.3 0.0
18/06:04am 14.5 13.4 14.3 99 0.1 SSW 13 15 7 8 1014.7 1010.3 0.0
18/06:00am 14.5 13.8 14.3 99 0.1 SSW 11 15 6 8 1014.7 1010.3 0.0
18/05:30am 14.5 13.8 14.2 98 0.2 SSW 11 13 6 7 1014.4 1010.0 0.0
18/05:00am 15.0 14.6 14.2 95 0.5 SW 9 13 5 7 1014.0 1009.6 0.0
18/04:30am 15.6 15.7 14.5 93 0.7 WSW 7 9 4 5 1013.9 1009.5 0.0
18/04:00am 15.9 15.9 14.3 90 1.0 SW 7 13 4 7 1013.8 1009.4 0.0
18/03:30am 16.2 15.8 14.0 87 1.3 ENE 9 15 5 8 1013.8 1009.4 0.0
18/03:00am 16.4 16.4 14.1 86 1.4 N 7 9 4 5 1014.0 1009.6 0.0
18/02:30am 16.7 16.4 14.3 86 1.4 N 9 13 5 7 1014.4 1010.0 0.0
18/02:00am 17.0 16.6 14.1 83 1.7 NNW 9 11 5 6 1014.6 1010.2 0.0
18/01:30am 17.0 16.3 14.3 84 1.6 N 11 15 6 8 1014.7 1010.3 0.0
18/01:00am 17.2 16.4 15.2 88 1.2 NW 13 17 7 9 1014.9 1010.5 0.0
18/12:30am 14.3 14.7 13.7 96 0.4 NNE 4 9 2 5 1015.1 1010.7 0.0
18/12:00am 14.2 13.6 13.4 95 0.5 N 9 9 5 5 1015.2 1010.9 0.0
 
Date/Time
EDT
Temp
°C
App
Temp
°C
Dew
Point
°C
Rel
Hum
%
Delta-T
°C
Wind Press
QNH
hPa
Press
MSL
hPa
Rain since
9am
mm
Dir  Spd
km/h
Gust
km/h
Spd
kts
Gust
kts
17/11:30pm 14.2 14.0 12.9 92 0.7 NW 6 9 3 5 1015.3 1011.0 0.0
17/11:00pm 14.2 14.0 12.9 92 0.7 NE 6 9 3 5 1015.5 1011.1 0.0
17/10:30pm 15.0 14.8 13.0 88 1.2 NW 6 11 3 6 1015.6 1011.2 0.0
17/10:00pm 15.1 15.9 12.4 84 1.5 CALM 0 0 0 0 1015.3 1011.0 0.0
17/09:30pm 16.4 17.3 12.9 80 2.0 CALM 0 0 0 0 1015.0 1010.6 0.0
17/09:00pm 17.8 18.1 13.3 75 2.7 WNW 4 7 2 4 1014.8 1010.4 0.0
17/08:30pm 18.2 18.0 13.1 72 3.0 WSW 6 9 3 5 1014.7 1010.3 0.0
17/08:00pm 19.0 17.5 13.2 69 3.4 WNW 13 19 7 10 1014.5 1010.1 0.0
17/07:30pm 19.2 18.3 13.6 70 3.3 NW 11 19 6 10 1014.4 1010.0 0.0
17/07:00pm 18.3 18.4 14.4 78 2.3 WSW 7 13 4 7 1014.0 1009.6 0.0
17/06:30pm 17.7 18.0 15.0 84 1.6 SSW 7 11 4 6 1013.8 1009.4 0.0
17/06:00pm 17.8 16.7 15.2 85 1.6 SSW 15 20 8 11 1013.9 1009.5 0.0
17/05:30pm 20.3 19.4 13.7 66 4.0 W 11 22 6 12 1013.8 1009.4 0.0
17/05:00pm 20.9 20.5 14.1 65 4.1 NNW 9 11 5 6 1013.5 1009.1 0.0
17/04:30pm 21.2 19.2 13.9 63 4.4 NW 17 24 9 13 1013.5 1009.1 0.0
17/04:00pm 21.1 19.3 13.3 61 4.7 WNW 15 20 8 11 1013.7 1009.3 0.0
17/03:30pm 21.4 20.0 13.3 60 4.8 NW 13 20 7 11 1013.6 1009.2 0.0
17/03:00pm 21.3 20.5 13.0 59 4.9 WNW 9 20 5 11 1013.6 1009.2 0.0
17/02:30pm 21.9 21.1 13.0 57 5.3 NW 9 15 5 8 1013.7 1009.3 0.0
17/02:00pm 21.7 20.5 12.8 57 5.3 W 11 15 6 8 1013.9 1009.5 0.0

Other formats

Comma delimited format used in spreadsheet applications
http://www.bom.gov.au/fwo/IDN60801/IDN60801.94921.axf

JavaScript Object Notation format (JSON) in row-major order
http://www.bom.gov.au/fwo/IDN60801/IDN60801.94921.json

Data quality

Most of these data are generated automatically and are frequently updated. Quality checks on data are not normally performed. It is possible for incorrect values to appear. Refer to information at About Latest Weather Observations and please check the disclaimer before using these data.